sensor_id;sensor_type;location;lat;lon;timestamp;temperature;humidity
22635;DHT22;11484;50.858;4.384;2023-09-07T00:00:15;23.10;99.90
22635;DHT22;11484;50.858;4.384;2023-09-07T00:02:41;23.10;99.90
22635;DHT22;11484;50.858;4.384;2023-09-07T00:05:07;23.00;99.90
22635;DHT22;11484;50.858;4.384;2023-09-07T00:07:33;23.00;99.90
22635;DHT22;11484;50.858;4.384;2023-09-07T00:09:59;23.00;99.90
22635;DHT22;11484;50.858;4.384;2023-09-07T00:12:25;23.00;99.90
22635;DHT22;11484;50.858;4.384;2023-09-07T00:14:53;23.00;99.90
22635;DHT22;11484;50.858;4.384;2023-09-07T00:17:19;22.90;99.90
22635;DHT22;11484;50.858;4.384;2023-09-07T00:19:45;22.90;99.90
22635;DHT22;11484;50.858;4.384;2023-09-07T00:22:14;22.90;99.90
22635;DHT22;11484;50.858;4.384;2023-09-07T00:24:39;22.80;99.90
22635;DHT22;11484;50.858;4.384;2023-09-07T00:27:05;22.90;99.90
22635;DHT22;11484;50.858;4.384;2023-09-07T00:29:34;22.80;99.90
22635;DHT22;11484;50.858;4.384;2023-09-07T00:32:00;22.80;99.90
22635;DHT22;11484;50.858;4.384;2023-09-07T00:34:25;22.70;99.90
22635;DHT22;11484;50.858;4.384;2023-09-07T00:36:51;22.70;99.90
22635;DHT22;11484;50.858;4.384;2023-09-07T00:39:17;22.70;99.90
22635;DHT22;11484;50.858;4.384;2023-09-07T00:41:42;22.70;99.90
22635;DHT22;11484;50.858;4.384;2023-09-07T00:44:08;22.70;99.90
22635;DHT22;11484;50.858;4.384;2023-09-07T00:46:33;22.70;99.90
22635;DHT22;11484;50.858;4.384;2023-09-07T00:48:59;22.70;99.90
22635;DHT22;11484;50.858;4.384;2023-09-07T00:51:26;22.80;99.90
22635;DHT22;11484;50.858;4.384;2023-09-07T00:53:52;22.80;99.90
22635;DHT22;11484;50.858;4.384;2023-09-07T00:56:18;22.80;99.90
22635;DHT22;11484;50.858;4.384;2023-09-07T00:58:44;22.80;99.90
22635;DHT22;11484;50.858;4.384;2023-09-07T01:01:10;22.80;99.90
22635;DHT22;11484;50.858;4.384;2023-09-07T01:03:36;22.80;99.70
22635;DHT22;11484;50.858;4.384;2023-09-07T01:06:07;22.70;99.70
22635;DHT22;11484;50.858;4.384;2023-09-07T01:08:49;22.70;99.40
22635;DHT22;11484;50.858;4.384;2023-09-07T01:11:19;22.70;99.40
22635;DHT22;11484;50.858;4.384;2023-09-07T01:13:52;22.70;99.40
22635;DHT22;11484;50.858;4.384;2023-09-07T01:16:20;22.70;99.00
22635;DHT22;11484;50.858;4.384;2023-09-07T01:18:47;22.70;98.80
22635;DHT22;11484;50.858;4.384;2023-09-07T01:21:13;22.70;98.70
22635;DHT22;11484;50.858;4.384;2023-09-07T01:23:41;22.70;98.80
22635;DHT22;11484;50.858;4.384;2023-09-07T01:26:08;22.70;99.00
22635;DHT22;11484;50.858;4.384;2023-09-07T01:28:34;22.80;99.40
22635;DHT22;11484;50.858;4.384;2023-09-07T01:31:00;22.80;99.40
22635;DHT22;11484;50.858;4.384;2023-09-07T01:33:27;22.80;98.70
22635;DHT22;11484;50.858;4.384;2023-09-07T01:35:52;22.70;98.20
22635;DHT22;11484;50.858;4.384;2023-09-07T01:38:18;22.60;98.40
22635;DHT22;11484;50.858;4.384;2023-09-07T01:40:44;22.70;98.80
22635;DHT22;11484;50.858;4.384;2023-09-07T01:43:10;22.70;98.30
22635;DHT22;11484;50.858;4.384;2023-09-07T01:45:35;22.70;98.80
22635;DHT22;11484;50.858;4.384;2023-09-07T01:48:02;22.70;99.20
22635;DHT22;11484;50.858;4.384;2023-09-07T01:50:28;22.70;99.00
22635;DHT22;11484;50.858;4.384;2023-09-07T01:52:54;22.70;99.60
22635;DHT22;11484;50.858;4.384;2023-09-07T01:55:20;22.80;99.70
22635;DHT22;11484;50.858;4.384;2023-09-07T01:57:45;22.70;99.30
22635;DHT22;11484;50.858;4.384;2023-09-07T02:00:12;22.60;99.10
22635;DHT22;11484;50.858;4.384;2023-09-07T02:02:38;22.60;98.80
22635;DHT22;11484;50.858;4.384;2023-09-07T02:05:04;22.50;98.20
22635;DHT22;11484;50.858;4.384;2023-09-07T02:07:29;22.40;98.10
22635;DHT22;11484;50.858;4.384;2023-09-07T02:09:55;22.40;98.20
22635;DHT22;11484;50.858;4.384;2023-09-07T02:12:21;22.40;99.00
22635;DHT22;11484;50.858;4.384;2023-09-07T02:14:46;22.50;98.70
22635;DHT22;11484;50.858;4.384;2023-09-07T02:17:12;22.50;98.20
22635;DHT22;11484;50.858;4.384;2023-09-07T02:19:43;22.50;98.20
22635;DHT22;11484;50.858;4.384;2023-09-07T02:22:09;22.50;98.00
22635;DHT22;11484;50.858;4.384;2023-09-07T02:24:34;22.50;98.10
22635;DHT22;11484;50.858;4.384;2023-09-07T02:27:00;22.40;98.10
22635;DHT22;11484;50.858;4.384;2023-09-07T02:29:26;22.40;98.10
22635;DHT22;11484;50.858;4.384;2023-09-07T02:31:52;22.40;98.40
22635;DHT22;11484;50.858;4.384;2023-09-07T02:34:18;22.50;98.30
22635;DHT22;11484;50.858;4.384;2023-09-07T02:36:43;22.50;98.90
22635;DHT22;11484;50.858;4.384;2023-09-07T02:39:10;22.50;99.30
22635;DHT22;11484;50.858;4.384;2023-09-07T02:41:37;22.50;99.40
22635;DHT22;11484;50.858;4.384;2023-09-07T02:44:04;22.50;99.30
22635;DHT22;11484;50.858;4.384;2023-09-07T02:46:30;22.50;99.50
22635;DHT22;11484;50.858;4.384;2023-09-07T02:48:57;22.40;99.70
22635;DHT22;11484;50.858;4.384;2023-09-07T02:51:23;22.40;99.70
22635;DHT22;11484;50.858;4.384;2023-09-07T02:53:50;22.30;99.50
22635;DHT22;11484;50.858;4.384;2023-09-07T02:56:16;22.30;99.20
22635;DHT22;11484;50.858;4.384;2023-09-07T02:58:41;22.20;99.40
22635;DHT22;11484;50.858;4.384;2023-09-07T03:01:07;22.30;99.10
22635;DHT22;11484;50.858;4.384;2023-09-07T03:03:36;22.20;98.70
22635;DHT22;11484;50.858;4.384;2023-09-07T03:06:13;22.20;98.60
22635;DHT22;11484;50.858;4.384;2023-09-07T03:08:43;22.20;98.70
22635;DHT22;11484;50.858;4.384;2023-09-07T03:11:09;22.20;98.60
22635;DHT22;11484;50.858;4.384;2023-09-07T03:13:35;22.20;98.70
22635;DHT22;11484;50.858;4.384;2023-09-07T03:16:02;22.10;98.70
22635;DHT22;11484;50.858;4.384;2023-09-07T03:18:28;22.00;98.70
22635;DHT22;11484;50.858;4.384;2023-09-07T03:20:55;22.00;98.90
22635;DHT22;11484;50.858;4.384;2023-09-07T03:23:21;21.90;98.90
22635;DHT22;11484;50.858;4.384;2023-09-07T03:25:48;21.90;99.30
22635;DHT22;11484;50.858;4.384;2023-09-07T03:28:13;21.90;99.40
22635;DHT22;11484;50.858;4.384;2023-09-07T03:30:39;21.90;99.10
22635;DHT22;11484;50.858;4.384;2023-09-07T03:33:05;21.90;99.20
22635;DHT22;11484;50.858;4.384;2023-09-07T03:35:32;21.90;99.50
22635;DHT22;11484;50.858;4.384;2023-09-07T03:37:57;21.90;99.70
22635;DHT22;11484;50.858;4.384;2023-09-07T03:40:23;21.90;99.90
22635;DHT22;11484;50.858;4.384;2023-09-07T03:42:49;21.90;99.90
22635;DHT22;11484;50.858;4.384;2023-09-07T03:45:15;21.80;99.90
22635;DHT22;11484;50.858;4.384;2023-09-07T03:47:41;21.80;99.90
22635;DHT22;11484;50.858;4.384;2023-09-07T03:50:08;21.80;99.90
22635;DHT22;11484;50.858;4.384;2023-09-07T03:52:34;21.80;99.90
22635;DHT22;11484;50.858;4.384;2023-09-07T03:55:00;21.70;99.90
22635;DHT22;11484;50.858;4.384;2023-09-07T03:57:27;21.70;99.90
22635;DHT22;11484;50.858;4.384;2023-09-07T03:59:53;21.70;99.90
22635;DHT22;11484;50.858;4.384;2023-09-07T04:02:21;21.60;99.90
22635;DHT22;11484;50.858;4.384;2023-09-07T04:04:51;21.70;99.90
22635;DHT22;11484;50.858;4.384;2023-09-07T04:07:17;21.70;99.90
22635;DHT22;11484;50.858;4.384;2023-09-07T04:09:43;21.60;99.90
22635;DHT22;11484;50.858;4.384;2023-09-07T04:12:09;21.60;99.90
22635;DHT22;11484;50.858;4.384;2023-09-07T04:14:35;21.50;99.90
22635;DHT22;11484;50.858;4.384;2023-09-07T04:17:01;21.40;99.90
22635;DHT22;11484;50.858;4.384;2023-09-07T04:19:27;21.40;99.90
22635;DHT22;11484;50.858;4.384;2023-09-07T04:21:52;21.30;99.90
22635;DHT22;11484;50.858;4.384;2023-09-07T04:24:18;21.40;99.90
22635;DHT22;11484;50.858;4.384;2023-09-07T04:26:44;21.40;99.90
22635;DHT22;11484;50.858;4.384;2023-09-07T04:29:10;21.40;99.90
22635;DHT22;11484;50.858;4.384;2023-09-07T04:31:37;21.40;99.90
22635;DHT22;11484;50.858;4.384;2023-09-07T04:34:03;21.30;99.90
22635;DHT22;11484;50.858;4.384;2023-09-07T04:36:29;21.30;99.90
22635;DHT22;11484;50.858;4.384;2023-09-07T04:38:54;21.30;99.90
22635;DHT22;11484;50.858;4.384;2023-09-07T04:41:20;21.30;99.90
22635;DHT22;11484;50.858;4.384;2023-09-07T04:43:46;21.30;99.90
22635;DHT22;11484;50.858;4.384;2023-09-07T04:46:13;21.20;99.90
22635;DHT22;11484;50.858;4.384;2023-09-07T04:48:39;21.20;99.90
22635;DHT22;11484;50.858;4.384;2023-09-07T04:51:08;21.20;99.90
22635;DHT22;11484;50.858;4.384;2023-09-07T04:53:36;21.10;99.90
22635;DHT22;11484;50.858;4.384;2023-09-07T04:56:03;21.10;99.90
22635;DHT22;11484;50.858;4.384;2023-09-07T04:58:29;21.00;99.90
22635;DHT22;11484;50.858;4.384;2023-09-07T05:01:09;21.00;99.90
22635;DHT22;11484;50.858;4.384;2023-09-07T05:03:36;20.90;99.90
22635;DHT22;11484;50.858;4.384;2023-09-07T05:06:04;20.90;99.90
22635;DHT22;11484;50.858;4.384;2023-09-07T05:08:30;20.90;99.90
22635;DHT22;11484;50.858;4.384;2023-09-07T05:11:01;20.80;99.90
22635;DHT22;11484;50.858;4.384;2023-09-07T05:13:28;20.90;99.90
22635;DHT22;11484;50.858;4.384;2023-09-07T05:15:54;20.90;99.90
22635;DHT22;11484;50.858;4.384;2023-09-07T05:18:21;20.90;99.90
22635;DHT22;11484;50.858;4.384;2023-09-07T05:20:47;21.00;99.90
22635;DHT22;11484;50.858;4.384;2023-09-07T05:23:19;20.90;99.90
22635;DHT22;11484;50.858;4.384;2023-09-07T05:25:51;20.80;99.90
22635;DHT22;11484;50.858;4.384;2023-09-07T05:28:21;20.80;99.90
22635;DHT22;11484;50.858;4.384;2023-09-07T05:30:47;20.70;99.90
22635;DHT22;11484;50.858;4.384;2023-09-07T05:33:15;20.70;99.90
22635;DHT22;11484;50.858;4.384;2023-09-07T05:35:40;20.70;99.90
22635;DHT22;11484;50.858;4.384;2023-09-07T05:38:07;20.70;99.90
22635;DHT22;11484;50.858;4.384;2023-09-07T05:40:34;20.70;99.90
22635;DHT22;11484;50.858;4.384;2023-09-07T05:43:00;20.70;99.90
22635;DHT22;11484;50.858;4.384;2023-09-07T05:45:26;20.70;99.90
22635;DHT22;11484;50.858;4.384;2023-09-07T05:47:51;20.70;99.90
22635;DHT22;11484;50.858;4.384;2023-09-07T05:50:18;20.80;99.90
22635;DHT22;11484;50.858;4.384;2023-09-07T05:52:44;20.80;99.90
22635;DHT22;11484;50.858;4.384;2023-09-07T05:55:10;20.80;99.90
22635;DHT22;11484;50.858;4.384;2023-09-07T05:57:35;20.80;99.90
22635;DHT22;11484;50.858;4.384;2023-09-07T06:00:02;20.80;99.90
22635;DHT22;11484;50.858;4.384;2023-09-07T06:02:28;20.70;99.90
22635;DHT22;11484;50.858;4.384;2023-09-07T06:04:53;20.60;99.90
22635;DHT22;11484;50.858;4.384;2023-09-07T06:07:19;20.60;99.90
22635;DHT22;11484;50.858;4.384;2023-09-07T06:09:45;20.40;99.90
22635;DHT22;11484;50.858;4.384;2023-09-07T06:12:11;20.50;99.90
22635;DHT22;11484;50.858;4.384;2023-09-07T06:14:38;20.50;99.90
22635;DHT22;11484;50.858;4.384;2023-09-07T06:17:03;20.50;99.90
22635;DHT22;11484;50.858;4.384;2023-09-07T06:19:29;20.60;99.90
22635;DHT22;11484;50.858;4.384;2023-09-07T06:21:58;20.70;99.90
22635;DHT22;11484;50.858;4.384;2023-09-07T06:24:24;20.80;99.90
22635;DHT22;11484;50.858;4.384;2023-09-07T06:26:49;20.80;99.90
22635;DHT22;11484;50.858;4.384;2023-09-07T06:29:15;20.80;99.90
22635;DHT22;11484;50.858;4.384;2023-09-07T06:31:41;20.80;99.90
22635;DHT22;11484;50.858;4.384;2023-09-07T06:34:06;20.90;99.90
22635;DHT22;11484;50.858;4.384;2023-09-07T06:36:32;21.00;99.90
22635;DHT22;11484;50.858;4.384;2023-09-07T06:38:58;21.10;99.90
22635;DHT22;11484;50.858;4.384;2023-09-07T06:41:24;21.10;99.90
22635;DHT22;11484;50.858;4.384;2023-09-07T06:43:50;21.10;99.90
22635;DHT22;11484;50.858;4.384;2023-09-07T06:46:16;21.20;99.90
22635;DHT22;11484;50.858;4.384;2023-09-07T06:48:41;21.20;99.90
22635;DHT22;11484;50.858;4.384;2023-09-07T06:51:07;21.30;99.90
22635;DHT22;11484;50.858;4.384;2023-09-07T06:53:35;22.10;99.90
22635;DHT22;11484;50.858;4.384;2023-09-07T06:56:02;23.30;99.90
22635;DHT22;11484;50.858;4.384;2023-09-07T06:58:28;24.40;98.70
22635;DHT22;11484;50.858;4.384;2023-09-07T07:00:59;25.20;96.60
22635;DHT22;11484;50.858;4.384;2023-09-07T07:03:29;25.90;95.70
22635;DHT22;11484;50.858;4.384;2023-09-07T07:05:55;26.40;95.00
22635;DHT22;11484;50.858;4.384;2023-09-07T07:08:21;26.50;94.30
22635;DHT22;11484;50.858;4.384;2023-09-07T07:10:47;27.10;93.50
22635;DHT22;11484;50.858;4.384;2023-09-07T07:13:19;27.30;93.10
22635;DHT22;11484;50.858;4.384;2023-09-07T07:15:45;27.80;92.30
22635;DHT22;11484;50.858;4.384;2023-09-07T07:18:10;28.30;90.80
22635;DHT22;11484;50.858;4.384;2023-09-07T07:20:41;29.00;89.00
22635;DHT22;11484;50.858;4.384;2023-09-07T07:23:07;29.50;86.90
22635;DHT22;11484;50.858;4.384;2023-09-07T07:25:33;30.30;84.40
22635;DHT22;11484;50.858;4.384;2023-09-07T07:28:00;31.20;81.70
22635;DHT22;11484;50.858;4.384;2023-09-07T07:30:29;31.50;80.30
22635;DHT22;11484;50.858;4.384;2023-09-07T07:32:56;31.70;77.80
22635;DHT22;11484;50.858;4.384;2023-09-07T07:35:22;31.90;77.40
22635;DHT22;11484;50.858;4.384;2023-09-07T07:37:49;32.10;74.80
22635;DHT22;11484;50.858;4.384;2023-09-07T07:40:15;32.30;74.30
22635;DHT22;11484;50.858;4.384;2023-09-07T07:42:41;31.70;74.70
22635;DHT22;11484;50.858;4.384;2023-09-07T07:45:09;31.60;74.80
22635;DHT22;11484;50.858;4.384;2023-09-07T07:47:35;30.90;76.70
22635;DHT22;11484;50.858;4.384;2023-09-07T07:50:00;30.60;77.60
22635;DHT22;11484;50.858;4.384;2023-09-07T07:52:26;30.30;77.60
22635;DHT22;11484;50.858;4.384;2023-09-07T07:54:53;29.80;78.20
22635;DHT22;11484;50.858;4.384;2023-09-07T07:57:19;29.50;78.70
22635;DHT22;11484;50.858;4.384;2023-09-07T07:59:45;29.10;80.20
22635;DHT22;11484;50.858;4.384;2023-09-07T08:02:10;28.90;80.20
22635;DHT22;11484;50.858;4.384;2023-09-07T08:04:36;28.90;80.90
22635;DHT22;11484;50.858;4.384;2023-09-07T08:07:02;28.70;80.00
22635;DHT22;11484;50.858;4.384;2023-09-07T08:09:33;28.40;81.60
22635;DHT22;11484;50.858;4.384;2023-09-07T08:11:59;28.20;81.10
22635;DHT22;11484;50.858;4.384;2023-09-07T08:14:28;28.10;82.30
22635;DHT22;11484;50.858;4.384;2023-09-07T08:16:57;28.30;81.70
22635;DHT22;11484;50.858;4.384;2023-09-07T08:19:23;28.60;82.00
22635;DHT22;11484;50.858;4.384;2023-09-07T08:21:48;28.90;81.40
22635;DHT22;11484;50.858;4.384;2023-09-07T08:24:14;28.90;81.30
22635;DHT22;11484;50.858;4.384;2023-09-07T08:26:40;29.40;81.20
22635;DHT22;11484;50.858;4.384;2023-09-07T08:29:07;29.30;79.10
22635;DHT22;11484;50.858;4.384;2023-09-07T08:31:36;29.50;80.40
22635;DHT22;11484;50.858;4.384;2023-09-07T08:34:06;29.70;79.60
22635;DHT22;11484;50.858;4.384;2023-09-07T08:36:32;29.70;78.80
22635;DHT22;11484;50.858;4.384;2023-09-07T08:39:03;30.20;77.50
22635;DHT22;11484;50.858;4.384;2023-09-07T08:41:36;30.30;76.50
22635;DHT22;11484;50.858;4.384;2023-09-07T08:44:08;30.20;76.40
22635;DHT22;11484;50.858;4.384;2023-09-07T08:46:35;30.10;77.00
22635;DHT22;11484;50.858;4.384;2023-09-07T08:49:02;30.20;76.40
22635;DHT22;11484;50.858;4.384;2023-09-07T08:51:29;31.20;74.90
22635;DHT22;11484;50.858;4.384;2023-09-07T08:54:00;32.00;71.60
22635;DHT22;11484;50.858;4.384;2023-09-07T08:56:26;32.50;70.20
22635;DHT22;11484;50.858;4.384;2023-09-07T08:58:52;33.50;68.00
22635;DHT22;11484;50.858;4.384;2023-09-07T09:01:18;33.70;65.80
22635;DHT22;11484;50.858;4.384;2023-09-07T09:03:44;33.20;66.50
22635;DHT22;11484;50.858;4.384;2023-09-07T09:06:11;32.30;68.40
22635;DHT22;11484;50.858;4.384;2023-09-07T09:08:44;31.40;70.20
22635;DHT22;11484;50.858;4.384;2023-09-07T09:11:11;31.20;72.30
22635;DHT22;11484;50.858;4.384;2023-09-07T09:13:37;31.30;70.50
22635;DHT22;11484;50.858;4.384;2023-09-07T09:16:06;31.70;70.00
22635;DHT22;11484;50.858;4.384;2023-09-07T09:18:31;31.80;68.70
22635;DHT22;11484;50.858;4.384;2023-09-07T09:20:59;31.60;68.80
22635;DHT22;11484;50.858;4.384;2023-09-07T09:23:33;31.70;69.40
22635;DHT22;11484;50.858;4.384;2023-09-07T09:26:00;31.70;68.00
22635;DHT22;11484;50.858;4.384;2023-09-07T09:28:26;31.70;69.60
22635;DHT22;11484;50.858;4.384;2023-09-07T09:30:58;32.00;68.70
22635;DHT22;11484;50.858;4.384;2023-09-07T09:33:24;33.10;66.80
22635;DHT22;11484;50.858;4.384;2023-09-07T09:35:51;33.20;65.70
22635;DHT22;11484;50.858;4.384;2023-09-07T09:38:18;33.90;64.70
22635;DHT22;11484;50.858;4.384;2023-09-07T09:40:46;34.20;63.60
22635;DHT22;11484;50.858;4.384;2023-09-07T09:43:13;34.10;63.10
22635;DHT22;11484;50.858;4.384;2023-09-07T09:45:40;34.30;62.80
22635;DHT22;11484;50.858;4.384;2023-09-07T09:48:13;34.50;63.50
22635;DHT22;11484;50.858;4.384;2023-09-07T09:50:40;34.80;61.30
22635;DHT22;11484;50.858;4.384;2023-09-07T09:53:08;35.10;60.30
22635;DHT22;11484;50.858;4.384;2023-09-07T09:55:36;34.50;61.80
22635;DHT22;11484;50.858;4.384;2023-09-07T09:58:02;34.60;62.10
22635;DHT22;11484;50.858;4.384;2023-09-07T10:00:28;34.80;62.10
22635;DHT22;11484;50.858;4.384;2023-09-07T10:03:31;34.70;61.70
22635;DHT22;11484;50.858;4.384;2023-09-07T10:06:10;35.20;62.00
22635;DHT22;11484;50.858;4.384;2023-09-07T10:08:36;35.10;61.20
22635;DHT22;11484;50.858;4.384;2023-09-07T10:11:08;34.70;61.90
22635;DHT22;11484;50.858;4.384;2023-09-07T10:13:36;33.60;63.60
22635;DHT22;11484;50.858;4.384;2023-09-07T10:16:04;33.50;64.60
22635;DHT22;11484;50.858;4.384;2023-09-07T10:18:34;33.80;64.90
22635;DHT22;11484;50.858;4.384;2023-09-07T10:21:01;34.10;65.10
22635;DHT22;11484;50.858;4.384;2023-09-07T10:23:45;33.80;64.90
22635;DHT22;11484;50.858;4.384;2023-09-07T10:28:38;33.50;65.10
22635;DHT22;11484;50.858;4.384;2023-09-07T10:31:25;33.20;65.10
22635;DHT22;11484;50.858;4.384;2023-09-07T10:33:51;32.70;66.70
22635;DHT22;11484;50.858;4.384;2023-09-07T10:36:24;32.20;68.50
22635;DHT22;11484;50.858;4.384;2023-09-07T10:38:51;31.70;69.40
22635;DHT22;11484;50.858;4.384;2023-09-07T10:41:20;31.20;71.00
22635;DHT22;11484;50.858;4.384;2023-09-07T10:43:51;31.00;71.60
22635;DHT22;11484;50.858;4.384;2023-09-07T10:46:21;30.50;73.50
22635;DHT22;11484;50.858;4.384;2023-09-07T10:48:52;30.20;74.30
22635;DHT22;11484;50.858;4.384;2023-09-07T10:51:19;30.10;74.60
22635;DHT22;11484;50.858;4.384;2023-09-07T10:53:46;29.90;75.00
22635;DHT22;11484;50.858;4.384;2023-09-07T10:56:11;29.80;75.40
22635;DHT22;11484;50.858;4.384;2023-09-07T10:58:38;29.50;76.00
22635;DHT22;11484;50.858;4.384;2023-09-07T11:01:07;29.30;76.30
22635;DHT22;11484;50.858;4.384;2023-09-07T11:03:34;29.20;76.60
22635;DHT22;11484;50.858;4.384;2023-09-07T11:06:17;29.20;77.20
22635;DHT22;11484;50.858;4.384;2023-09-07T11:08:53;29.10;77.40
22635;DHT22;11484;50.858;4.384;2023-09-07T11:11:19;29.20;77.90
22635;DHT22;11484;50.858;4.384;2023-09-07T11:13:50;29.20;76.80
22635;DHT22;11484;50.858;4.384;2023-09-07T11:16:19;29.30;76.80
22635;DHT22;11484;50.858;4.384;2023-09-07T11:18:46;29.20;76.90
22635;DHT22;11484;50.858;4.384;2023-09-07T11:21:21;29.30;76.70
22635;DHT22;11484;50.858;4.384;2023-09-07T11:23:47;29.00;77.10
22635;DHT22;11484;50.858;4.384;2023-09-07T11:26:15;28.90;77.10
22635;DHT22;11484;50.858;4.384;2023-09-07T11:28:47;28.90;77.30
22635;DHT22;11484;50.858;4.384;2023-09-07T11:31:13;29.00;77.30
22635;DHT22;11484;50.858;4.384;2023-09-07T11:33:41;28.80;77.50
22635;DHT22;11484;50.858;4.384;2023-09-07T11:36:07;28.80;77.60
22635;DHT22;11484;50.858;4.384;2023-09-07T11:38:37;28.80;77.00
22635;DHT22;11484;50.858;4.384;2023-09-07T11:41:03;29.00;77.50
22635;DHT22;11484;50.858;4.384;2023-09-07T11:43:30;29.00;77.10
22635;DHT22;11484;50.858;4.384;2023-09-07T11:45:56;29.00;75.70
22635;DHT22;11484;50.858;4.384;2023-09-07T11:48:23;28.90;75.60
22635;DHT22;11484;50.858;4.384;2023-09-07T11:50:52;28.80;76.20
22635;DHT22;11484;50.858;4.384;2023-09-07T11:53:18;28.80;77.20
22635;DHT22;11484;50.858;4.384;2023-09-07T11:55:43;28.80;76.60
22635;DHT22;11484;50.858;4.384;2023-09-07T11:58:09;28.80;76.10
22635;DHT22;11484;50.858;4.384;2023-09-07T12:00:36;28.80;77.60
22635;DHT22;11484;50.858;4.384;2023-09-07T12:03:05;28.80;76.20
22635;DHT22;11484;50.858;4.384;2023-09-07T12:05:32;28.70;76.50
22635;DHT22;11484;50.858;4.384;2023-09-07T12:07:59;28.90;76.10
22635;DHT22;11484;50.858;4.384;2023-09-07T12:10:26;29.00;74.60
22635;DHT22;11484;50.858;4.384;2023-09-07T12:12:52;29.00;75.10
22635;DHT22;11484;50.858;4.384;2023-09-07T12:15:18;29.10;75.20
22635;DHT22;11484;50.858;4.384;2023-09-07T12:17:44;29.10;75.00
22635;DHT22;11484;50.858;4.384;2023-09-07T12:20:10;29.10;76.20
22635;DHT22;11484;50.858;4.384;2023-09-07T12:22:37;29.10;74.70
22635;DHT22;11484;50.858;4.384;2023-09-07T12:25:05;29.10;74.90
22635;DHT22;11484;50.858;4.384;2023-09-07T12:27:36;29.10;75.10
22635;DHT22;11484;50.858;4.384;2023-09-07T12:30:03;29.00;74.80
22635;DHT22;11484;50.858;4.384;2023-09-07T12:32:32;28.90;74.80
22635;DHT22;11484;50.858;4.384;2023-09-07T12:34:58;28.80;75.90
22635;DHT22;11484;50.858;4.384;2023-09-07T12:37:24;28.90;76.10
22635;DHT22;11484;50.858;4.384;2023-09-07T12:39:51;29.00;76.40
22635;DHT22;11484;50.858;4.384;2023-09-07T12:42:17;29.00;75.90
22635;DHT22;11484;50.858;4.384;2023-09-07T12:44:44;29.00;76.50
22635;DHT22;11484;50.858;4.384;2023-09-07T12:47:09;28.90;76.40
22635;DHT22;11484;50.858;4.384;2023-09-07T12:49:35;29.00;76.50
22635;DHT22;11484;50.858;4.384;2023-09-07T12:52:01;29.00;76.20
22635;DHT22;11484;50.858;4.384;2023-09-07T12:54:29;29.00;76.10
22635;DHT22;11484;50.858;4.384;2023-09-07T12:56:55;29.00;77.20
22635;DHT22;11484;50.858;4.384;2023-09-07T12:59:20;29.10;76.40
22635;DHT22;11484;50.858;4.384;2023-09-07T13:01:48;29.20;75.50
22635;DHT22;11484;50.858;4.384;2023-09-07T13:04:14;29.20;75.20
22635;DHT22;11484;50.858;4.384;2023-09-07T13:06:41;29.20;76.20
22635;DHT22;11484;50.858;4.384;2023-09-07T13:09:06;29.20;75.40
22635;DHT22;11484;50.858;4.384;2023-09-07T13:11:35;29.30;74.80
22635;DHT22;11484;50.858;4.384;2023-09-07T13:14:02;29.20;75.10
22635;DHT22;11484;50.858;4.384;2023-09-07T13:16:28;29.30;74.80
22635;DHT22;11484;50.858;4.384;2023-09-07T13:18:54;29.30;75.00
22635;DHT22;11484;50.858;4.384;2023-09-07T13:21:20;29.40;75.00
22635;DHT22;11484;50.858;4.384;2023-09-07T13:23:45;29.40;75.30
22635;DHT22;11484;50.858;4.384;2023-09-07T13:26:12;29.40;75.20
22635;DHT22;11484;50.858;4.384;2023-09-07T13:28:38;29.40;75.90
22635;DHT22;11484;50.858;4.384;2023-09-07T13:31:03;29.50;75.80
22635;DHT22;11484;50.858;4.384;2023-09-07T13:33:29;29.40;75.60
22635;DHT22;11484;50.858;4.384;2023-09-07T13:35:55;29.40;76.00
22635;DHT22;11484;50.858;4.384;2023-09-07T13:38:21;29.40;76.60
22635;DHT22;11484;50.858;4.384;2023-09-07T13:40:48;29.30;76.80
22635;DHT22;11484;50.858;4.384;2023-09-07T13:43:15;29.40;77.20
22635;DHT22;11484;50.858;4.384;2023-09-07T13:45:40;29.40;76.30
22635;DHT22;11484;50.858;4.384;2023-09-07T13:48:06;29.50;76.40
22635;DHT22;11484;50.858;4.384;2023-09-07T13:50:32;29.50;76.40
22635;DHT22;11484;50.858;4.384;2023-09-07T13:52:58;29.50;76.50
22635;DHT22;11484;50.858;4.384;2023-09-07T13:55:25;29.50;76.90
22635;DHT22;11484;50.858;4.384;2023-09-07T13:57:51;29.50;77.30
22635;DHT22;11484;50.858;4.384;2023-09-07T14:00:17;29.50;76.90
22635;DHT22;11484;50.858;4.384;2023-09-07T14:02:42;29.60;77.70
22635;DHT22;11484;50.858;4.384;2023-09-07T14:05:10;29.60;77.70
22635;DHT22;11484;50.858;4.384;2023-09-07T14:07:36;29.70;77.70
22635;DHT22;11484;50.858;4.384;2023-09-07T14:10:02;29.70;77.80
22635;DHT22;11484;50.858;4.384;2023-09-07T14:12:30;29.80;75.90
22635;DHT22;11484;50.858;4.384;2023-09-07T14:14:58;29.90;75.90
22635;DHT22;11484;50.858;4.384;2023-09-07T14:17:25;29.80;75.70
22635;DHT22;11484;50.858;4.384;2023-09-07T14:19:52;29.80;75.70
22635;DHT22;11484;50.858;4.384;2023-09-07T14:22:18;29.80;75.60
22635;DHT22;11484;50.858;4.384;2023-09-07T14:24:43;29.80;76.70
22635;DHT22;11484;50.858;4.384;2023-09-07T14:27:09;29.90;76.60
22635;DHT22;11484;50.858;4.384;2023-09-07T14:29:35;30.00;75.70
22635;DHT22;11484;50.858;4.384;2023-09-07T14:32:02;30.10;76.00
22635;DHT22;11484;50.858;4.384;2023-09-07T14:34:28;30.00;76.20
22635;DHT22;11484;50.858;4.384;2023-09-07T14:36:54;30.00;75.30
22635;DHT22;11484;50.858;4.384;2023-09-07T14:39:21;30.00;76.70
22635;DHT22;11484;50.858;4.384;2023-09-07T14:41:50;30.00;75.70
22635;DHT22;11484;50.858;4.384;2023-09-07T14:44:16;29.90;75.10
22635;DHT22;11484;50.858;4.384;2023-09-07T14:46:42;29.90;75.60
22635;DHT22;11484;50.858;4.384;2023-09-07T14:49:08;30.10;75.80
22635;DHT22;11484;50.858;4.384;2023-09-07T14:51:33;30.10;75.40
22635;DHT22;11484;50.858;4.384;2023-09-07T14:53:59;30.20;77.10
22635;DHT22;11484;50.858;4.384;2023-09-07T14:56:25;30.20;79.20
22635;DHT22;11484;50.858;4.384;2023-09-07T14:58:52;30.10;78.60
22635;DHT22;11484;50.858;4.384;2023-09-07T15:01:17;30.10;78.70
22635;DHT22;11484;50.858;4.384;2023-09-07T15:03:43;30.00;79.10
22635;DHT22;11484;50.858;4.384;2023-09-07T15:06:10;29.90;80.10
22635;DHT22;11484;50.858;4.384;2023-09-07T15:08:38;29.80;81.00
22635;DHT22;11484;50.858;4.384;2023-09-07T15:11:05;29.80;81.80
22635;DHT22;11484;50.858;4.384;2023-09-07T15:13:31;29.80;81.10
22635;DHT22;11484;50.858;4.384;2023-09-07T15:15:57;29.80;81.30
22635;DHT22;11484;50.858;4.384;2023-09-07T15:18:23;29.80;81.40
22635;DHT22;11484;50.858;4.384;2023-09-07T15:20:48;29.80;81.30
22635;DHT22;11484;50.858;4.384;2023-09-07T15:23:17;29.80;81.50
22635;DHT22;11484;50.858;4.384;2023-09-07T15:25:43;29.80;81.80
22635;DHT22;11484;50.858;4.384;2023-09-07T15:28:09;29.70;82.20
22635;DHT22;11484;50.858;4.384;2023-09-07T15:30:36;29.70;82.60